createdAt,value
2019-05-15T00:01:02.480Z,85.06
2019-05-15T00:06:08.465Z,85.74
2019-05-15T00:11:13.324Z,85.75
2019-05-15T00:16:18.190Z,85.72
2019-05-15T00:21:22.683Z,83.77
2019-05-15T00:26:27.375Z,85.00
2019-05-15T00:31:32.042Z,84.85
2019-05-15T00:36:38.285Z,84.52
2019-05-15T00:41:53.316Z,84.97
2019-05-15T00:46:49.219Z,84.80
2019-05-15T00:51:53.984Z,84.22
2019-05-15T00:56:58.690Z,85.07
2019-05-15T01:02:03.252Z,84.69
2019-05-15T01:07:08.425Z,84.21
2019-05-15T01:12:14.021Z,84.84
2019-05-15T01:17:18.669Z,82.99
2019-05-15T01:22:23.247Z,82.39
2019-05-15T01:27:29.176Z,82.27
2019-05-15T01:32:33.818Z,80.99
2019-05-15T01:37:39.454Z,78.83
2019-05-15T01:42:44.117Z,81.09
2019-05-15T01:47:49.361Z,80.16
2019-05-15T01:52:53.941Z,78.59
2019-05-15T01:57:58.584Z,78.56
2019-05-15T02:03:03.244Z,80.69
2019-05-15T02:08:09.098Z,80.80
2019-05-15T02:13:14.232Z,80.43
2019-05-15T02:18:19.275Z,80.45
2019-05-15T02:23:24.127Z,78.73
2019-05-15T02:28:29.009Z,79.52
2019-05-15T02:33:33.694Z,78.98
2019-05-15T02:38:41.005Z,79.12
2019-05-15T02:43:44.709Z,79.32
2019-05-15T02:48:49.355Z,79.07
2019-05-15T02:53:54.063Z,79.98
2019-05-15T02:59:00.043Z,79.59
2019-05-15T03:04:04.915Z,79.62
2019-05-15T03:09:10.434Z,79.91
2019-05-15T03:14:15.080Z,80.55
2019-05-15T03:19:19.709Z,81.14
2019-05-15T03:24:28.653Z,80.63
2019-05-15T03:29:31.684Z,80.68
2019-05-15T03:34:44.764Z,79.47
2019-05-15T03:39:46.491Z,79.03
2019-05-15T03:44:50.223Z,78.91
2019-05-15T03:49:55.055Z,78.93
2019-05-15T03:54:59.684Z,78.30
2019-05-15T04:00:09.359Z,78.20
2019-05-15T04:05:12.553Z,79.42
2019-05-15T04:10:19.956Z,80.29
2019-05-15T04:15:23.599Z,80.75
2019-05-15T04:20:29.770Z,80.52
2019-05-15T04:25:34.967Z,79.82
2019-05-15T04:30:39.590Z,80.06
2019-05-15T04:35:44.252Z,79.40
2019-05-15T04:40:50.037Z,78.49
2019-05-15T04:45:54.811Z,78.11
2019-05-15T04:50:59.497Z,78.89
2019-05-15T04:56:04.202Z,77.66
2019-05-15T05:01:09.733Z,76.89
2019-05-15T05:06:18.970Z,76.00
2019-05-15T05:11:24.179Z,77.22
2019-05-15T05:16:29.520Z,74.83
2019-05-15T05:21:34.313Z,73.11
2019-05-15T05:26:38.907Z,74.71
2019-05-15T05:31:44.810Z,73.48
2019-05-15T05:36:49.592Z,71.85
2019-05-15T05:41:54.541Z,70.38
2019-05-15T05:46:59.391Z,71.51
2019-05-15T05:52:04.171Z,71.59
2019-05-15T05:57:09.213Z,69.26
2019-05-15T06:02:15.021Z,70.36
2019-05-15T06:07:19.785Z,71.27
2019-05-15T06:12:24.748Z,71.30
2019-05-15T06:17:29.309Z,70.86
2019-05-15T06:22:33.844Z,70.80
2019-05-15T06:27:39.204Z,71.06
2019-05-15T06:33:01.879Z,70.11
2019-05-15T06:37:51.451Z,68.62
2019-05-15T06:42:56.094Z,67.06
2019-05-15T06:48:01.621Z,69.12
2019-05-15T06:53:10.127Z,67.55
2019-05-15T06:58:13.092Z,65.56
2019-05-15T07:03:24.771Z,62.91
2019-05-15T07:08:23.987Z,61.50
2019-05-15T07:13:29.159Z,61.09
2019-05-15T07:18:33.853Z,61.98
2019-05-15T07:23:38.859Z,62.63
2019-05-15T07:28:43.809Z,63.44
2019-05-15T07:33:49.284Z,63.86
2019-05-15T07:38:54.112Z,64.47
2019-05-15T07:43:58.784Z,62.50
2019-05-15T07:49:03.419Z,58.22
2019-05-15T07:54:09.116Z,57.30
2019-05-15T07:59:13.993Z,57.87
2019-05-15T08:04:26.178Z,59.57
2019-05-15T08:09:24.746Z,60.49
2019-05-15T08:14:29.301Z,59.41
2019-05-15T08:19:33.997Z,59.76
2019-05-15T08:24:39.137Z,60.18
2019-05-15T08:29:44.281Z,61.18
2019-05-15T08:34:48.916Z,66.41
2019-05-15T08:39:53.556Z,65.66
2019-05-15T08:44:58.764Z,65.75
2019-05-15T08:50:04.225Z,65.73
2019-05-15T08:55:09.190Z,65.15
2019-05-15T09:00:15.018Z,66.24
2019-05-15T09:05:19.858Z,65.08
2019-05-15T09:10:24.466Z,64.85
2019-05-15T09:15:29.430Z,62.71
2019-05-15T09:20:34.219Z,58.72
2019-05-15T09:25:39.111Z,56.83
2019-05-15T09:30:43.752Z,57.88
2019-05-15T09:35:49.003Z,60.35
2019-05-15T09:40:54.040Z,60.91
2019-05-15T09:45:58.586Z,55.80
2019-05-15T09:51:03.191Z,55.80
2019-05-15T09:56:08.163Z,51.84
2019-05-15T10:01:13.060Z,52.31
2019-05-15T10:06:20.538Z,49.82
2019-05-15T10:11:24.027Z,51.95
2019-05-15T10:16:28.827Z,53.95
2019-05-15T10:21:33.492Z,55.83
2019-05-15T10:26:39.263Z,58.25
2019-05-15T10:31:44.243Z,58.40
2019-05-15T10:36:49.503Z,59.52
2019-05-15T10:41:54.355Z,62.19
2019-05-15T10:46:58.986Z,62.18
2019-05-15T10:52:04.718Z,59.24
2019-05-15T10:57:09.310Z,59.24
2019-05-15T11:02:13.889Z,57.84
2019-05-15T11:07:19.416Z,55.86
2019-05-15T11:12:25.300Z,55.37
2019-05-15T11:17:31.615Z,54.77
2019-05-15T11:22:39.069Z,56.63
2019-05-15T11:27:42.709Z,58.74
2019-05-15T11:32:48.719Z,57.39
2019-05-15T18:29:08.991Z,76.91
2019-05-15T18:34:12.591Z,77.28
2019-05-15T18:39:17.288Z,76.99
2019-05-15T18:44:21.960Z,76.82
2019-05-15T18:49:28.521Z,77.64
2019-05-15T18:54:33.473Z,78.16
2019-05-15T18:59:38.191Z,77.15
2019-05-15T19:04:42.777Z,77.35
2019-05-15T19:09:48.411Z,78.45
2019-05-15T19:14:53.779Z,78.95
2019-05-15T19:19:58.808Z,78.97
2019-05-15T19:25:04.534Z,80.05
2019-05-15T19:30:09.687Z,80.85
2019-05-15T19:35:14.828Z,81.00
2019-05-15T19:40:19.851Z,81.59
2019-05-15T19:45:25.538Z,81.37
2019-05-15T19:50:33.048Z,81.36
2019-05-15T19:55:37.760Z,81.72
2019-05-15T20:00:42.583Z,81.12
2019-05-15T20:05:48.599Z,80.95
2019-05-15T20:10:53.589Z,81.64
2019-05-15T20:15:58.274Z,83.29
2019-05-15T20:21:02.898Z,84.35
2019-05-15T20:26:08.416Z,83.98
2019-05-15T20:31:13.676Z,84.17
2019-05-15T20:36:18.434Z,84.03
2019-05-15T20:41:24.363Z,84.54
2019-05-15T20:46:29.130Z,84.33
2019-05-15T20:51:35.850Z,84.60
2019-05-15T20:56:40.189Z,84.53
2019-05-15T21:01:44.742Z,84.59
2019-05-15T21:06:49.363Z,85.03
2019-05-15T21:11:53.929Z,85.58
2019-05-15T21:16:59.143Z,85.40
2019-05-15T21:22:04.005Z,85.55
2019-05-15T21:27:08.725Z,85.57
2019-05-15T21:32:13.421Z,85.91
2019-05-15T21:37:18.721Z,85.90
2019-05-15T21:42:23.658Z,85.91
2019-05-15T21:47:28.957Z,85.67
2019-05-15T21:52:34.787Z,85.55
2019-05-15T21:57:42.590Z,85.28
2019-05-15T22:02:45.960Z,85.50
2019-05-15T22:07:51.212Z,85.47
2019-05-15T22:12:58.708Z,85.57
2019-05-15T22:18:03.001Z,84.94
2019-05-15T22:23:08.320Z,85.05
2019-05-15T22:28:12.991Z,84.93
2019-05-15T22:33:17.973Z,85.14
2019-05-15T22:38:22.584Z,85.00
2019-05-15T22:43:28.819Z,85.35
2019-05-15T22:48:33.605Z,85.54
2019-05-15T22:53:38.414Z,85.49
2019-05-15T22:58:43.064Z,85.81
2019-05-15T23:03:47.963Z,85.77
2019-05-15T23:08:52.820Z,85.75
2019-05-15T23:13:58.684Z,85.60
2019-05-15T23:19:03.416Z,85.52
2019-05-15T23:24:08.626Z,85.47
2019-05-15T23:29:13.309Z,86.07
2019-05-15T23:34:18.659Z,86.07
2019-05-15T23:39:23.476Z,86.52
2019-05-15T23:44:28.056Z,86.86
2019-05-15T23:49:32.637Z,86.29
2019-05-15T23:54:38.556Z,85.75
2019-05-15T23:59:43.205Z,85.04
